Terminal Aerodrome Forecast
Issued by NWS Sioux Falls, SD

Home | Current Version | Previous Version | Text Only | Print | Product List | Glossary On
Versions: 1 2 3 4 5 6 7 8 9 10 11 12 13 14 15 16 17 18
000
FTUS43 KFSD 270520
TAFHON
TAF
KHON 270520Z 2706/2806 35012KT P6SM SCT012 OVC025
      TEMPO 2706/2707 5SM -SN OVC012
     FM271300 29007KT P6SM SCT015 BKN060
     FM272000 24007KT P6SM BKN025
     FM272300 19006KT P6SM SCT025 BKN150=

USA.gov is the U.S. government's official web portal to all federal, state and local government web resources and services.